createdAt,value
2018-08-12T00:01:36.791Z,27.90
2018-08-12T00:04:06.247Z,27.90
2018-08-12T00:06:35.754Z,27.90
2018-08-12T00:09:07.437Z,27.90
2018-08-12T00:11:37.175Z,27.90
2018-08-12T00:14:07.611Z,27.90
2018-08-12T00:16:37.589Z,27.90
2018-08-12T00:19:07.560Z,27.80
2018-08-12T00:21:37.304Z,27.90
2018-08-12T00:24:06.992Z,27.90
2018-08-12T00:26:36.503Z,27.80
2018-08-12T00:29:06.409Z,27.90
2018-08-12T00:31:36.084Z,27.90
2018-08-12T00:34:05.448Z,27.80
2018-08-12T00:36:35.655Z,27.90
2018-08-12T00:39:10.303Z,27.90
2018-08-12T00:41:39.735Z,27.80
2018-08-12T00:44:09.701Z,27.80
2018-08-12T00:46:39.665Z,27.90
2018-08-12T00:49:09.334Z,27.80
2018-08-12T00:51:38.856Z,27.90
2018-08-12T00:54:08.329Z,27.80
2018-08-12T00:56:38.133Z,27.80
2018-08-12T00:59:07.663Z,27.80
2018-08-12T01:01:37.417Z,27.80
2018-08-12T01:04:07.249Z,27.80
2018-08-12T01:06:36.797Z,27.80
2018-08-12T01:09:11.457Z,27.80
2018-08-12T01:11:41.054Z,27.80
2018-08-12T01:14:11.316Z,27.80
2018-08-12T01:16:41.540Z,27.80
2018-08-12T01:19:11.144Z,27.80
2018-08-12T01:21:40.492Z,27.80
2018-08-12T01:24:10.270Z,27.80
2018-08-12T01:26:39.777Z,27.80
2018-08-12T01:29:09.171Z,27.80
2018-08-12T01:31:38.909Z,27.80
2018-08-12T01:34:08.478Z,27.80
2018-08-12T01:36:38.114Z,27.80
2018-08-12T01:39:10.198Z,27.80
2018-08-12T01:41:39.667Z,27.80
2018-08-12T01:44:09.304Z,27.80
2018-08-12T01:46:38.848Z,27.80
2018-08-12T01:49:09.048Z,27.80
2018-08-12T01:51:39.146Z,27.80
2018-08-12T01:54:08.650Z,27.80
2018-08-12T01:56:38.025Z,27.80
2018-08-12T01:59:07.364Z,27.80
2018-08-12T02:01:36.997Z,27.80
2018-08-12T02:04:06.676Z,27.80
2018-08-12T02:06:36.190Z,27.80
2018-08-12T02:09:08.117Z,27.80
2018-08-12T02:11:37.792Z,27.80
2018-08-12T02:14:08.062Z,27.80
2018-08-12T02:16:38.265Z,27.80
2018-08-12T02:19:07.984Z,27.80
2018-08-12T02:21:37.465Z,27.80
2018-08-12T02:24:07.694Z,27.80
2018-08-12T02:26:37.497Z,27.80
2018-08-12T02:29:07.147Z,27.70
2018-08-12T02:31:37.413Z,27.80
2018-08-12T02:34:06.865Z,27.70
2018-08-12T02:36:36.426Z,27.70
2018-08-12T02:39:09.381Z,27.80
2018-08-12T02:41:39.311Z,27.80
2018-08-12T02:44:08.900Z,27.70
2018-08-12T02:46:38.560Z,27.70
2018-08-12T02:49:07.755Z,27.70
2018-08-12T02:51:37.773Z,27.70
2018-08-12T02:54:07.210Z,27.70
2018-08-12T02:56:36.871Z,27.70
2018-08-12T02:59:06.603Z,27.70
2018-08-12T03:01:36.118Z,27.70
2018-08-12T03:04:05.653Z,27.70
2018-08-12T03:06:35.551Z,27.70
2018-08-12T03:09:07.876Z,27.70
2018-08-12T03:11:37.878Z,27.70
2018-08-12T03:14:07.921Z,27.70
2018-08-12T03:16:37.266Z,27.70
2018-08-12T03:19:06.854Z,27.70
2018-08-12T03:21:36.273Z,27.70
2018-08-12T03:24:05.558Z,27.70
2018-08-12T03:26:35.002Z,27.70
2018-08-12T03:29:04.610Z,27.70
2018-08-12T03:31:34.253Z,27.60
2018-08-12T03:34:03.788Z,27.70
2018-08-12T03:36:33.313Z,27.70
2018-08-12T03:39:03.082Z,27.70
2018-08-12T03:41:32.492Z,27.70
2018-08-12T03:44:02.067Z,27.70
2018-08-12T03:46:31.668Z,27.60
2018-08-12T03:49:01.659Z,27.60
2018-08-12T03:51:31.292Z,27.70
2018-08-12T03:54:00.813Z,27.70
2018-08-12T03:56:30.282Z,27.70
2018-08-12T03:58:59.686Z,27.60
2018-08-12T04:01:29.086Z,27.70
2018-08-12T04:03:59.201Z,27.60
2018-08-12T04:06:29.641Z,27.60
2018-08-12T04:08:59.440Z,27.60
2018-08-12T04:11:29.238Z,27.70
2018-08-12T04:13:59.008Z,27.60
2018-08-12T04:16:28.546Z,27.60
2018-08-12T04:18:58.412Z,27.70
2018-08-12T04:21:27.833Z,27.60
2018-08-12T04:23:57.318Z,27.60
2018-08-12T04:26:26.796Z,27.60
2018-08-12T04:28:56.241Z,27.60
2018-08-12T04:31:25.746Z,27.70
2018-08-12T04:33:55.623Z,27.70
2018-08-12T04:36:25.233Z,27.70
2018-08-12T04:38:55.155Z,27.70
2018-08-12T04:41:24.554Z,27.60
2018-08-12T04:43:54.425Z,27.60
2018-08-12T04:46:23.935Z,27.70
2018-08-12T04:48:53.287Z,27.70
2018-08-12T04:51:22.872Z,27.70
2018-08-12T04:53:52.593Z,27.60
2018-08-12T04:56:22.141Z,27.70
2018-08-12T04:58:52.466Z,27.70
2018-08-12T05:01:22.415Z,27.70
2018-08-12T05:03:52.201Z,27.60
2018-08-12T05:06:21.604Z,27.70
2018-08-12T05:08:51.263Z,27.70
2018-08-12T05:11:20.910Z,27.70
2018-08-12T05:13:50.605Z,27.70
2018-08-12T05:16:20.729Z,27.70
2018-08-12T05:18:50.406Z,27.70
2018-08-12T05:21:19.880Z,27.70
2018-08-12T05:23:49.351Z,27.70
2018-08-12T05:26:18.791Z,27.70
2018-08-12T05:28:48.511Z,27.70
2018-08-12T05:31:17.989Z,27.70
2018-08-12T05:33:47.538Z,27.70
2018-08-12T05:36:17.246Z,27.70
2018-08-12T05:38:46.924Z,27.70
2018-08-12T05:41:16.551Z,27.70
2018-08-12T05:43:46.061Z,27.80
2018-08-12T05:46:15.530Z,27.70
2018-08-12T05:48:45.279Z,27.70
2018-08-12T05:51:15.257Z,27.80
2018-08-12T05:53:44.804Z,27.80
2018-08-12T05:56:14.329Z,27.80
2018-08-12T05:58:43.552Z,27.80
2018-08-12T06:01:13.110Z,27.80
2018-08-12T06:03:42.423Z,27.80
2018-08-12T06:06:12.495Z,27.80
2018-08-12T06:08:41.750Z,27.80
2018-08-12T06:11:12.094Z,27.80
2018-08-12T06:13:42.087Z,27.80
2018-08-12T06:16:11.489Z,27.90
2018-08-12T06:18:40.976Z,27.80
2018-08-12T06:21:10.505Z,27.90
2018-08-12T06:23:40.046Z,27.80
2018-08-12T06:26:09.401Z,27.90
2018-08-12T06:28:38.925Z,27.90
2018-08-12T06:31:08.303Z,27.90
2018-08-12T06:33:37.689Z,27.90
2018-08-12T06:36:06.991Z,27.90
2018-08-12T06:38:36.407Z,27.90
2018-08-12T06:41:05.595Z,27.90
2018-08-12T06:43:35.322Z,28.00
2018-08-12T06:46:05.047Z,27.90
2018-08-12T06:48:34.376Z,28.00
2018-08-12T06:51:04.479Z,28.00
2018-08-12T06:53:34.143Z,28.00
2018-08-12T06:56:03.439Z,28.00
2018-08-12T06:58:32.737Z,28.00
2018-08-12T07:01:02.412Z,28.00
2018-08-12T07:03:31.755Z,28.00
2018-08-12T07:06:00.993Z,28.00
2018-08-12T07:08:30.554Z,28.00
2018-08-12T07:11:00.211Z,28.00
2018-08-12T07:13:29.864Z,28.00
2018-08-12T07:15:59.809Z,28.00
2018-08-12T07:18:30.114Z,28.00
2018-08-12T07:20:59.363Z,28.00
2018-08-12T07:23:29.293Z,28.00
2018-08-12T07:25:58.563Z,28.00
2018-08-12T07:28:28.627Z,28.00
2018-08-12T07:30:58.099Z,28.00
2018-08-12T07:33:27.411Z,28.00
2018-08-12T07:35:57.188Z,28.00
2018-08-12T07:38:26.987Z,28.00
2018-08-12T07:40:57.736Z,28.00
2018-08-12T07:43:27.252Z,28.00
2018-08-12T07:45:57.038Z,28.10
2018-08-12T07:48:26.347Z,28.10
2018-08-12T07:50:55.835Z,28.10
2018-08-12T07:53:25.263Z,28.10
2018-08-12T07:55:55.207Z,28.10
2018-08-12T07:58:24.788Z,28.10
2018-08-12T08:00:54.271Z,28.10
2018-08-12T08:03:24.309Z,28.20
2018-08-12T08:05:53.998Z,28.20
2018-08-12T08:08:23.873Z,28.20
2018-08-12T08:10:53.470Z,28.20
2018-08-12T08:13:22.938Z,28.20
2018-08-12T08:15:52.112Z,28.20
2018-08-12T08:18:21.494Z,28.20
2018-08-12T08:20:50.892Z,28.20
2018-08-12T08:23:20.645Z,28.20
2018-08-12T08:25:50.031Z,28.10
2018-08-12T08:28:20.223Z,28.20
2018-08-12T08:30:49.504Z,28.20
2018-08-12T08:33:19.192Z,28.20
2018-08-12T08:35:48.821Z,28.20
2018-08-12T08:38:18.227Z,28.30
2018-08-12T08:40:47.761Z,28.20
2018-08-12T08:43:17.292Z,28.20
2018-08-12T08:45:47.622Z,28.20
2018-08-12T08:48:18.256Z,28.20
2018-08-12T08:50:47.935Z,28.20
2018-08-12T08:53:17.777Z,28.30
2018-08-12T08:55:47.727Z,28.20
2018-08-12T08:58:17.949Z,28.30
2018-08-12T09:00:48.351Z,28.30
2018-08-12T09:03:18.609Z,28.30
2018-08-12T09:05:48.874Z,28.30
2018-08-12T09:08:19.547Z,28.30
2018-08-12T09:10:49.428Z,28.30
2018-08-12T09:13:19.360Z,28.30
2018-08-12T09:15:49.321Z,28.30
2018-08-12T09:18:20.291Z,28.30
2018-08-12T09:20:50.300Z,28.30
2018-08-12T09:23:20.133Z,28.30
2018-08-12T09:25:50.190Z,28.30
2018-08-12T09:28:20.094Z,28.30
2018-08-12T09:30:49.949Z,28.30
2018-08-12T09:33:19.979Z,28.30
2018-08-12T09:35:49.827Z,28.40
2018-08-12T09:38:19.840Z,28.40
2018-08-12T09:40:49.592Z,28.40
2018-08-12T09:43:19.853Z,28.40
2018-08-12T09:45:49.920Z,28.40
2018-08-12T09:48:20.167Z,28.40
2018-08-12T09:50:50.069Z,28.40
2018-08-12T09:53:21.067Z,28.40
2018-08-12T09:55:51.071Z,28.40
2018-08-12T09:58:21.559Z,28.40
2018-08-12T10:00:51.886Z,28.40
2018-08-12T10:03:22.537Z,28.40
2018-08-12T10:05:52.240Z,28.50
2018-08-12T10:08:22.567Z,28.50
2018-08-12T10:10:52.955Z,28.50
2018-08-12T10:13:22.553Z,28.50
2018-08-12T10:15:52.916Z,28.50
2018-08-12T10:18:22.877Z,28.50
2018-08-12T10:20:52.955Z,28.50
2018-08-12T10:23:23.004Z,28.50
2018-08-12T10:25:53.220Z,28.50
2018-08-12T10:28:23.195Z,28.60
2018-08-12T10:30:53.766Z,28.60
2018-08-12T10:33:23.618Z,28.60
2018-08-12T10:35:53.533Z,28.50
2018-08-12T10:38:24.085Z,28.50
2018-08-12T10:40:53.804Z,28.50
2018-08-12T10:43:23.541Z,28.50
2018-08-12T10:45:53.545Z,28.50
2018-08-12T10:48:23.419Z,28.50
2018-08-12T10:50:53.535Z,28.50
2018-08-12T10:53:23.163Z,28.40
2018-08-12T10:55:53.854Z,28.40
2018-08-12T10:58:23.828Z,28.40
2018-08-12T11:00:53.520Z,28.40
2018-08-12T11:03:23.360Z,28.40
2018-08-12T11:05:53.218Z,28.40
2018-08-12T11:08:23.159Z,28.40
2018-08-12T11:10:52.958Z,28.40
2018-08-12T11:13:23.368Z,28.40
2018-08-12T11:15:54.248Z,28.40
2018-08-12T11:18:24.461Z,28.40
2018-08-12T11:20:54.477Z,28.40
2018-08-12T11:23:24.327Z,28.40
2018-08-12T11:25:54.173Z,28.40
2018-08-12T11:28:24.089Z,28.40
2018-08-12T11:30:53.679Z,28.40
2018-08-12T11:33:23.176Z,28.40
2018-08-12T11:35:52.792Z,28.40
2018-08-12T11:38:22.488Z,28.40
2018-08-12T11:40:52.170Z,28.40
2018-08-12T11:43:22.060Z,28.40
2018-08-12T11:45:51.341Z,28.50
2018-08-12T11:48:21.215Z,28.50
2018-08-12T11:50:51.365Z,28.50
2018-08-12T11:53:21.360Z,28.50
2018-08-12T11:55:51.122Z,28.50
2018-08-12T11:58:20.656Z,28.50
2018-08-12T12:00:50.281Z,28.50
2018-08-12T12:03:19.805Z,28.40
2018-08-12T12:05:49.273Z,28.40
2018-08-12T12:08:18.512Z,28.50
2018-08-12T12:10:48.876Z,28.40
2018-08-12T12:13:18.422Z,28.40
2018-08-12T12:15:48.043Z,28.40
2018-08-12T12:18:17.978Z,28.50
2018-08-12T12:20:47.503Z,28.50
2018-08-12T12:23:17.164Z,28.50
2018-08-12T12:25:46.902Z,28.40
2018-08-12T12:28:17.083Z,28.50
2018-08-12T12:30:46.682Z,28.50
2018-08-12T12:33:16.491Z,28.40
2018-08-12T12:35:45.954Z,28.40
2018-08-12T12:38:15.428Z,28.40
2018-08-12T12:40:45.412Z,28.40
2018-08-12T12:43:15.049Z,28.40
2018-08-12T12:45:44.605Z,28.40
2018-08-12T12:48:14.311Z,28.40
2018-08-12T12:50:44.553Z,28.40
2018-08-12T12:53:13.823Z,28.40
2018-08-12T12:55:43.947Z,28.40
2018-08-12T12:58:13.650Z,28.40
2018-08-12T13:00:43.241Z,28.40
2018-08-12T13:03:13.314Z,28.40
2018-08-12T13:05:42.882Z,28.40
2018-08-12T13:08:13.119Z,28.40
2018-08-12T13:10:43.171Z,28.40
2018-08-12T13:13:13.396Z,28.40
2018-08-12T13:15:43.141Z,28.30
2018-08-12T13:18:13.344Z,28.40
2018-08-12T13:20:42.909Z,28.40
2018-08-12T13:23:12.430Z,28.40
2018-08-12T13:25:41.933Z,28.40
2018-08-12T13:28:11.489Z,28.40
2018-08-12T13:30:41.909Z,28.40
2018-08-12T13:33:12.197Z,28.40
2018-08-12T13:35:41.948Z,28.40
2018-08-12T13:38:11.830Z,28.40
2018-08-12T13:40:41.022Z,28.40
2018-08-12T13:43:10.431Z,28.40
2018-08-12T13:45:40.102Z,28.40
2018-08-12T13:48:09.740Z,28.40
2018-08-12T13:50:39.324Z,28.40
2018-08-12T13:53:08.772Z,28.40
2018-08-12T13:55:38.804Z,28.40
2018-08-12T13:58:08.346Z,28.40
2018-08-12T14:00:37.610Z,28.40
2018-08-12T14:03:07.713Z,28.40
2018-08-12T14:05:37.184Z,28.40
2018-08-12T14:08:06.597Z,28.40
2018-08-12T14:10:35.804Z,28.40
2018-08-12T14:13:05.653Z,28.40
2018-08-12T14:15:35.343Z,28.40
2018-08-12T14:18:05.862Z,28.50
2018-08-12T14:20:35.524Z,28.40
2018-08-12T14:23:05.016Z,28.40
2018-08-12T14:25:34.503Z,28.40
2018-08-12T14:28:03.581Z,28.30
2018-08-12T14:30:33.943Z,28.40
2018-08-12T14:33:03.417Z,28.30
2018-08-12T14:35:33.158Z,28.30
2018-08-12T14:38:02.323Z,28.30
2018-08-12T14:40:31.988Z,28.30
2018-08-12T14:43:01.864Z,28.30
2018-08-12T14:45:31.556Z,28.40
2018-08-12T14:48:01.066Z,28.30
2018-08-12T14:50:30.472Z,28.30
2018-08-12T14:52:59.838Z,28.30
2018-08-12T14:55:30.159Z,28.30
2018-08-12T14:57:59.807Z,28.30
2018-08-12T15:00:29.699Z,28.40
2018-08-12T15:02:59.366Z,28.30
2018-08-12T15:05:28.785Z,28.30
2018-08-12T15:07:58.634Z,28.30
2018-08-12T15:10:28.224Z,28.30
2018-08-12T15:12:58.288Z,28.40
2018-08-12T15:15:28.115Z,28.30
2018-08-12T15:17:57.918Z,28.40
2018-08-12T15:20:27.618Z,28.40
2018-08-12T15:22:57.533Z,28.40
2018-08-12T15:25:27.399Z,28.40
2018-08-12T15:27:57.040Z,28.40
2018-08-12T15:30:26.806Z,28.40
2018-08-12T15:32:56.362Z,28.40
2018-08-12T15:35:25.977Z,28.40
2018-08-12T15:37:55.605Z,28.40
2018-08-12T15:40:25.243Z,28.40
2018-08-12T15:42:55.649Z,28.30
2018-08-12T15:45:25.038Z,28.30
2018-08-12T15:47:54.548Z,28.30
2018-08-12T15:50:24.180Z,28.40
2018-08-12T15:52:53.268Z,28.30
2018-08-12T15:55:23.125Z,28.30
2018-08-12T15:57:52.683Z,28.30
2018-08-12T16:00:23.781Z,28.30
2018-08-12T16:02:53.269Z,28.30
2018-08-12T16:05:22.900Z,28.30
2018-08-12T16:07:53.320Z,28.40
2018-08-12T16:10:24.412Z,28.30
2018-08-12T16:12:55.296Z,28.30
2018-08-12T16:15:25.459Z,28.40
2018-08-12T16:17:55.336Z,28.40
2018-08-12T16:20:25.176Z,28.30
2018-08-12T16:22:55.395Z,28.40
2018-08-12T16:25:25.271Z,28.40
2018-08-12T16:27:55.347Z,28.40
2018-08-12T16:30:25.663Z,28.40
2018-08-12T16:32:55.550Z,28.30
2018-08-12T16:35:25.520Z,28.40
2018-08-12T16:37:55.493Z,28.40
2018-08-12T16:40:25.764Z,28.30
2018-08-12T16:42:55.524Z,28.30
2018-08-12T16:45:25.539Z,28.40
2018-08-12T16:47:55.821Z,28.30
2018-08-12T16:50:25.966Z,28.40
2018-08-12T16:52:55.835Z,28.30
2018-08-12T16:55:25.547Z,28.30
2018-08-12T16:57:55.957Z,28.30
2018-08-12T17:00:26.108Z,28.40
2018-08-12T17:02:56.167Z,28.40
2018-08-12T17:05:25.527Z,28.40
2018-08-12T17:07:54.990Z,28.30
2018-08-12T17:10:24.726Z,28.30
2018-08-12T17:12:54.244Z,28.40
2018-08-12T17:15:24.260Z,28.30
2018-08-12T17:17:53.488Z,28.30
2018-08-12T17:20:23.436Z,28.30
2018-08-12T17:22:53.562Z,28.40
2018-08-12T17:25:23.240Z,28.30
2018-08-12T17:27:52.797Z,28.40
2018-08-12T17:30:22.633Z,28.30
2018-08-12T17:32:52.192Z,28.30
2018-08-12T17:35:21.814Z,28.30
2018-08-12T17:37:51.388Z,28.30
2018-08-12T17:40:21.265Z,28.30
2018-08-12T17:42:51.223Z,28.30
2018-08-12T17:45:20.976Z,28.30
2018-08-12T17:47:50.598Z,28.30
2018-08-12T17:50:20.144Z,28.30
2018-08-12T17:52:49.680Z,28.30
2018-08-12T17:55:19.245Z,28.30
2018-08-12T17:57:49.579Z,28.30
2018-08-12T18:00:19.906Z,28.30
2018-08-12T18:02:49.294Z,28.30
2018-08-12T18:05:18.697Z,28.30
2018-08-12T18:07:49.262Z,28.30
2018-08-12T18:10:18.773Z,28.30
2018-08-12T18:12:48.240Z,28.20
2018-08-12T18:15:18.030Z,28.30
2018-08-12T18:17:47.576Z,28.30
2018-08-12T18:20:16.894Z,28.30
2018-08-12T18:22:46.596Z,28.20
2018-08-12T18:25:16.746Z,28.20
2018-08-12T18:27:46.801Z,28.20
2018-08-12T18:30:16.394Z,28.20
2018-08-12T18:32:45.903Z,28.20
2018-08-12T18:35:15.396Z,28.20
2018-08-12T18:37:44.907Z,28.20
2018-08-12T18:40:15.535Z,28.20
2018-08-12T18:42:45.507Z,28.20
2018-08-12T18:45:14.992Z,28.20
2018-08-12T18:47:44.635Z,28.20
2018-08-12T18:50:14.309Z,28.20
2018-08-12T18:52:43.642Z,28.10
2018-08-12T18:55:14.004Z,28.20
2018-08-12T18:57:43.207Z,28.10
2018-08-12T19:00:14.564Z,28.10
2018-08-12T19:02:44.130Z,28.20
2018-08-12T19:05:14.163Z,28.10
2018-08-12T19:07:43.828Z,28.10
2018-08-12T19:10:14.096Z,28.10
2018-08-12T19:12:44.482Z,28.10
2018-08-12T19:15:14.750Z,28.10
2018-08-12T19:17:45.276Z,28.10
2018-08-12T19:20:15.024Z,28.10
2018-08-12T19:22:44.693Z,28.10
2018-08-12T19:25:14.712Z,28.10
2018-08-12T19:27:44.882Z,28.10
2018-08-12T19:30:14.631Z,28.10
2018-08-12T19:32:44.709Z,28.10
2018-08-12T19:35:14.790Z,28.00
2018-08-12T19:37:44.990Z,28.00
2018-08-12T19:40:14.385Z,28.00
2018-08-12T19:42:43.913Z,28.00
2018-08-12T19:45:13.845Z,28.10
2018-08-12T19:47:43.317Z,28.00
2018-08-12T19:50:12.901Z,28.00
2018-08-12T19:52:43.215Z,28.00
2018-08-12T19:55:12.953Z,28.00
2018-08-12T19:57:42.372Z,28.00
2018-08-12T20:00:14.910Z,28.00
2018-08-12T20:02:45.675Z,28.00
2018-08-12T20:05:15.334Z,28.00
2018-08-12T20:07:44.794Z,28.00
2018-08-12T20:10:14.349Z,28.00
2018-08-12T20:12:44.081Z,28.00
2018-08-12T20:15:13.488Z,28.00
2018-08-12T20:17:43.164Z,28.00
2018-08-12T20:20:13.597Z,28.00
2018-08-12T20:22:43.093Z,28.00
2018-08-12T20:25:13.350Z,28.00
2018-08-12T20:27:42.751Z,28.00
2018-08-12T20:30:13.280Z,28.00
2018-08-12T20:32:43.418Z,28.00
2018-08-12T20:35:12.658Z,28.00
2018-08-12T20:37:42.356Z,28.00
2018-08-12T20:40:12.010Z,28.00
2018-08-12T20:42:41.624Z,28.00
2018-08-12T20:45:11.495Z,28.00
2018-08-12T20:47:41.143Z,28.00
2018-08-12T20:50:10.858Z,28.00
2018-08-12T20:52:40.680Z,28.00
2018-08-12T20:55:10.536Z,28.00
2018-08-12T20:57:40.058Z,28.00
2018-08-12T21:00:10.663Z,28.00
2018-08-12T21:02:40.539Z,28.00
2018-08-12T21:05:10.297Z,28.00
2018-08-12T21:07:41.920Z,28.00
2018-08-12T21:10:12.502Z,28.00
2018-08-12T21:12:42.271Z,28.00
2018-08-12T21:15:11.956Z,27.90
2018-08-12T21:17:41.832Z,28.00
2018-08-12T21:20:11.556Z,28.00
2018-08-12T21:22:41.122Z,28.00
2018-08-12T21:25:10.780Z,27.90
2018-08-12T21:27:40.489Z,27.90
2018-08-12T21:30:09.880Z,27.90
2018-08-12T21:32:39.410Z,27.90
2018-08-12T21:35:08.969Z,28.00
2018-08-12T21:37:38.383Z,27.90
2018-08-12T21:40:08.060Z,27.90
2018-08-12T21:42:37.547Z,27.90
2018-08-12T21:45:07.433Z,27.90
2018-08-12T21:47:37.271Z,27.90
2018-08-12T21:50:06.695Z,27.90
2018-08-12T21:52:36.236Z,27.90
2018-08-12T21:55:05.865Z,27.90
2018-08-12T21:57:35.101Z,27.90
2018-08-12T22:00:06.970Z,27.90
2018-08-12T22:02:36.089Z,27.90
2018-08-12T22:05:05.870Z,27.90
2018-08-12T22:07:35.572Z,27.90
2018-08-12T22:10:05.371Z,27.90
2018-08-12T22:12:35.035Z,27.90
2018-08-12T22:15:05.264Z,27.90
2018-08-12T22:17:34.920Z,27.90
2018-08-12T22:20:04.483Z,27.90
2018-08-12T22:22:34.023Z,27.90
2018-08-12T22:25:04.375Z,27.90
2018-08-12T22:27:33.681Z,27.90
2018-08-12T22:30:03.125Z,27.90
2018-08-12T22:32:32.768Z,27.90
2018-08-12T22:35:01.909Z,27.90
2018-08-12T22:37:31.787Z,27.90
2018-08-12T22:40:01.069Z,27.90
2018-08-12T22:42:30.440Z,27.90
2018-08-12T22:44:59.961Z,27.90
2018-08-12T22:47:29.788Z,27.90
2018-08-12T22:49:59.171Z,27.90
2018-08-12T22:52:28.959Z,27.90
2018-08-12T22:54:58.705Z,27.80
2018-08-12T22:57:28.432Z,27.90
2018-08-12T22:59:58.413Z,27.90
2018-08-12T23:02:28.006Z,27.80
2018-08-12T23:04:57.695Z,27.90
2018-08-12T23:07:27.307Z,27.80
2018-08-12T23:09:56.634Z,27.80
2018-08-12T23:12:26.090Z,27.90
2018-08-12T23:15:01.707Z,27.90
2018-08-12T23:17:32.390Z,27.90
2018-08-12T23:20:01.921Z,27.80
2018-08-12T23:22:31.562Z,27.80
2018-08-12T23:25:01.138Z,27.80
2018-08-12T23:27:30.732Z,27.80
2018-08-12T23:30:00.266Z,27.80
2018-08-12T23:32:29.676Z,27.80
2018-08-12T23:34:59.298Z,27.90
2018-08-12T23:37:28.973Z,27.80
2018-08-12T23:39:58.910Z,27.80
2018-08-12T23:42:28.862Z,27.90
2018-08-12T23:44:58.812Z,27.80
2018-08-12T23:47:28.576Z,27.90
2018-08-12T23:49:58.503Z,27.80
2018-08-12T23:52:28.041Z,27.90
2018-08-12T23:54:57.438Z,27.90
2018-08-12T23:57:27.099Z,27.80
2018-08-12T23:59:56.645Z,27.80
